Time;durP1;ratioP1;P1;durP2;ratioP2;P2;SDS_P1;SDS_P2;PMS_P1;PMS_P2;Temp;Humidity;BMP_temperature;BMP_pressure;BME280_temperature;BME280_humidity;BME280_pressure;Samples;Min_cycle;Max_cycle;Signal;HPM_P1;HPM_P2
2021/12/14 00:01:08;;;;;;;11.40;10.40;;;;;;;6.91;98.27;101184.88;10445215;28;20148;-73
2021/12/14 00:06:12;;;;;;;9.27;8.48;;;;;;;6.72;97.63;101180.47;10444868;28;20148;-73
2021/12/14 00:11:46;;;;;;;10.60;9.80;;;;;;;6.71;97.93;101170.88;10462805;28;20048;-73
2021/12/14 00:16:50;;;;;;;9.25;8.50;;;;;;;6.60;97.86;101157.81;10444508;28;20058;-73
2021/12/14 00:21:54;;;;;;;10.25;9.38;;;;;;;6.45;98.88;101168.19;10461713;28;20041;-72
2021/12/14 00:27:00;;;;;;;10.15;9.40;;;;;;;6.43;99.52;101169.94;10461956;28;20053;-73
2021/12/14 00:32:11;;;;;;;10.48;9.68;;;;;;;6.72;97.87;101167.41;10462708;28;20065;-72
2021/12/14 00:37:27;;;;;;;9.98;9.10;;;;;;;6.81;96.70;101162.19;10444333;28;20041;-72
2021/12/14 00:42:28;;;;;;;10.90;10.00;;;;;;;6.69;96.57;101157.84;10461128;28;20049;-73
2021/12/14 00:47:30;;;;;;;8.75;8.00;;;;;;;6.79;95.64;101158.72;10444845;28;20048;-73
2021/12/14 00:52:34;;;;;;;7.53;6.93;;;;;;;6.83;94.11;101153.50;10443386;28;20095;-74
2021/12/14 00:57:37;;;;;;;7.20;6.60;;;;;;;6.97;92.54;101157.88;10461770;28;20051;-72
2021/12/14 01:02:39;;;;;;;8.35;7.55;;;;;;;6.70;94.10;101159.56;10459098;28;20517;-72
2021/12/14 01:07:43;;;;;;;6.80;6.20;;;;;;;6.60;94.19;101156.91;10443726;28;20392;-73
2021/12/14 01:12:50;;;;;;;7.18;6.57;;;;;;;6.64;94.05;101161.28;10425642;28;20044;-72
2021/12/14 01:18:46;;;;;;;7.55;6.95;;;;;;;6.74;93.34;101161.31;10442061;28;20140;-71
2021/12/14 01:23:35;;;;;;;7.60;6.97;;;;;;;6.70;93.38;101163.91;10439087;28;20111;-72
2021/12/14 01:28:39;;;;;;;7.63;7.03;;;;;;;6.69;93.64;101168.28;10441400;28;20077;-72
2021/12/14 01:33:45;;;;;;;6.57;6.07;;;;;;;6.64;93.62;101170.00;10458147;28;20044;-74
2021/12/14 01:38:58;;;;;;;7.57;6.93;;;;;;;6.57;93.91;101168.25;10458712;28;20475;-74
2021/12/14 01:44:01;;;;;;;5.35;4.95;;;;;;;6.67;92.88;101176.97;10424273;28;20041;-75
2021/12/14 01:49:14;;;;;;;6.45;5.50;;;;;;;6.61;92.94;101172.63;10458113;28;20044;-74
2021/12/14 01:54:34;;;;;;;6.30;5.80;;;;;;;6.63;92.79;101177.81;10456778;28;20053;-72
2021/12/14 01:59:39;;;;;;;5.85;5.35;;;;;;;6.70;92.24;101174.38;10440662;28;20461;-73
2021/12/14 02:04:43;;;;;;;6.63;6.03;;;;;;;6.61;93.93;101164.78;10441163;28;20076;-73
2021/12/14 02:09:50;;;;;;;6.97;6.47;;;;;;;6.58;93.86;101155.19;10439987;28;20094;-73
2021/12/14 02:14:59;;;;;;;6.72;6.22;;;;;;;6.72;92.95;101149.09;10456439;28;20040;-73
2021/12/14 02:20:02;;;;;;;6.70;6.10;;;;;;;6.65;93.92;101157.81;10458150;28;20049;-73
2021/12/14 02:25:05;;;;;;;6.80;6.25;;;;;;;6.57;94.43;101158.66;10488447;22;20041;-81
2021/12/14 02:30:16;;;;;;;6.97;6.45;;;;;;;6.65;93.14;101149.97;10498437;28;20231;-81
2021/12/14 02:35:22;;;;;;;7.80;7.20;;;;;;;6.47;94.77;101146.47;10501853;28;20091;-81
2021/12/14 02:46:08;;;;;;;6.50;6.00;;;;;;;6.69;92.93;101136.06;10514831;28;20045;-79
2021/12/14 02:51:19;;;;;;;6.90;6.32;;;;;;;6.63;93.12;101122.97;10483627;28;20063;-79
2021/12/14 02:56:25;;;;;;;8.38;7.60;;;;;;;6.56;93.35;101125.56;10498164;28;20040;-79
2021/12/14 03:01:28;;;;;;;6.95;6.35;;;;;;;6.58;92.83;101121.22;10529888;28;20037;-78
2021/12/14 03:06:36;;;;;;;8.20;7.60;;;;;;;6.48;93.99;101129.03;10545636;28;20040;-79
2021/12/14 03:11:37;;;;;;;9.38;8.57;;;;;;;6.55;94.26;101142.13;10532088;28;20040;-79
2021/12/14 03:16:40;;;;;;;8.23;7.53;;;;;;;6.50;94.28;101130.78;10514728;28;20100;-80
2021/12/14 03:21:45;;;;;;;7.97;7.28;;;;;;;6.57;93.14;101147.34;10500573;28;20401;-79
2021/12/14 03:26:52;;;;;;;8.95;8.07;;;;;;;6.45;94.01;101158.63;10514850;28;20452;-81
2021/12/14 03:31:57;;;;;;;9.05;8.25;;;;;;;6.41;95.08;101150.78;10513098;28;20190;-81
2021/12/14 03:37:09;;;;;;;8.68;7.97;;;;;;;6.53;95.41;101143.84;10516575;28;20051;-80
2021/12/14 03:42:18;;;;;;;8.88;8.07;;;;;;;6.37;97.06;101141.19;10503473;28;20048;-81
2021/12/14 03:47:29;;;;;;;7.38;6.78;;;;;;;6.27;97.99;101130.72;10519434;28;20044;-79
2021/12/14 03:52:35;;;;;;;8.05;7.25;;;;;;;6.18;98.86;101125.47;10502250;28;20041;-80
2021/12/14 03:57:37;;;;;;;5.60;5.20;;;;;;;6.11;99.51;101123.72;10493970;28;20045;-78
2021/12/14 04:02:41;;;;;;;6.75;6.15;;;;;;;6.14;99.29;101113.25;10503355;28;20052;-80
2021/12/14 04:07:44;;;;;;;7.15;6.45;;;;;;;6.28;98.95;101108.06;10501655;28;20510;-80
2021/12/14 04:12:52;;;;;;;6.88;6.28;;;;;;;6.17;99.22;101110.66;10506723;28;20033;-80
2021/12/14 04:17:54;;;;;;;6.25;5.75;;;;;;;5.99;99.38;101102.78;10504762;28;20044;-79
2021/12/14 04:22:58;;;;;;;5.45;5.05;;;;;;;6.03;99.10;101097.56;10504682;28;20114;-79
2021/12/14 04:28:05;;;;;;;6.13;5.70;;;;;;;6.02;98.40;101097.53;10518972;28;20045;-79
2021/12/14 04:33:13;;;;;;;4.20;3.88;;;;;;;6.21;95.92;101078.47;10504932;28;20059;-78
2021/12/14 04:38:22;;;;;;;;;;;;;;;6.02;96.17;101085.41;10495019;28;20057;-78
2021/12/14 04:54:04;;;;;;;5.32;4.93;;;;;;;5.72;98.70;101074.78;10508743;28;20490;-79
2021/12/14 04:59:12;;;;;;;6.00;5.50;;;;;;;5.71;98.19;101063.50;10506525;28;20036;-79
2021/12/14 05:04:21;;;;;;;6.15;5.53;;;;;;;5.52;98.12;101067.72;10522477;28;20051;-80
2021/12/14 05:09:29;;;;;;;6.25;5.75;;;;;;;5.42;99.10;101065.06;10520463;28;20041;-79
2021/12/14 05:15:06;;;;;;;6.15;5.60;;;;;;;5.38;99.70;101063.31;10540122;28;20048;-79
2021/12/14 05:20:12;;;;;;;6.22;5.72;;;;;;;5.18;99.87;101064.06;10510937;28;20055;-79
2021/12/14 05:25:25;;;;;;;6.30;5.70;;;;;;;5.31;100.00;101049.34;10525570;28;20066;-79
2021/12/14 05:30:40;;;;;;;6.53;6.05;;;;;;;5.40;98.15;101041.59;10526443;28;20044;-79
2021/12/14 05:35:54;;;;;;;7.05;6.55;;;;;;;5.25;99.23;101034.53;10518781;28;20109;-81
2021/12/14 05:41:09;;;;;;;8.48;7.78;;;;;;;5.19;100.00;101033.66;10515824;28;20410;-80
2021/12/14 05:46:19;;;;;;;6.90;6.40;;;;;;;5.37;99.64;101038.97;10502867;28;20044;-78
2021/12/14 05:51:38;;;;;;;5.53;5.13;;;;;;;5.61;97.57;101029.50;10518530;28;20041;-81
2021/12/14 05:56:40;;;;;;;5.15;4.65;;;;;;;5.66;97.16;101030.41;10517762;28;20116;-80
2021/12/14 06:01:42;;;;;;;3.33;3.03;;;;;;;5.77;96.42;101034.81;10517357;28;20136;-80
2021/12/14 06:06:55;;;;;;;3.28;2.97;;;;;;;5.77;96.73;101034.81;10496454;28;20044;-79
2021/12/14 06:12:14;;;;;;;2.50;2.30;;;;;;;5.61;97.99;101038.19;10514425;28;20040;-82
2021/12/14 06:17:30;;;;;;;1.88;1.58;;;;;;;5.57;97.97;101032.09;10489422;28;20049;-81
2021/12/14 06:22:35;;;;;;;2.20;2.00;;;;;;;5.37;99.07;101041.56;10506471;28;20114;-80
2021/12/14 06:27:37;;;;;;;1.77;1.67;;;;;;;5.40;99.82;101044.22;10475685;28;20422;-82
2021/12/14 06:32:45;;;;;;;2.15;1.83;;;;;;;5.48;98.74;101065.97;10493162;28;20045;-80
2021/12/14 06:43:22;;;;;;;2.72;2.03;;;;;;;5.59;97.10;101088.63;10495271;28;20139;-81
2021/12/14 06:48:34;;;;;;;3.53;1.97;;;;;;;5.58;96.84;101087.78;10485974;28;20106;-79
2021/12/14 06:53:37;;;;;;;2.22;1.88;;;;;;;5.60;97.31;101096.47;10486099;28;20294;-78
2021/12/14 06:59:01;;;;;;;1.85;1.73;;;;;;;5.61;96.55;101098.19;10488431;28;20059;-78
2021/12/14 07:04:24;;;;;;;2.80;2.10;;;;;;;5.81;94.20;101091.34;10484819;28;20417;-79
2021/12/14 07:09:35;;;;;;;3.25;2.17;;;;;;;5.62;95.72;101096.47;10493474;28;20048;-79
2021/12/14 07:14:36;;;;;;;2.28;2.08;;;;;;;5.67;95.02;101084.34;10505449;28;20050;-78
2021/12/14 07:19:58;;;;;;;3.22;2.25;;;;;;;5.83;94.47;101088.75;10514177;28;20036;-78
2021/12/14 07:25:07;;;;;;;1.83;1.70;;;;;;;5.94;92.28;101086.22;10519471;28;20048;-79
2021/12/14 07:30:35;;;;;;;2.25;2.05;;;;;;;5.95;92.48;101088.84;10500827;28;20044;-79
2021/12/14 07:35:58;;;;;;;2.53;2.33;;;;;;;5.92;93.01;101080.13;10504996;28;20048;-80
2021/12/14 07:41:09;;;;;;;3.30;2.28;;;;;;;5.76;93.27;101077.41;10507089;28;20132;-79
2021/12/14 07:46:23;;;;;;;3.05;2.80;;;;;;;5.79;93.95;101071.31;10520709;28;20044;-79
2021/12/14 07:51:27;;;;;;;3.50;3.20;;;;;;;5.83;93.58;101067.88;10520544;28;20041;-80
2021/12/14 07:56:34;;;;;;;3.60;3.30;;;;;;;5.80;93.57;101071.34;10519994;28;20055;-79
2021/12/14 08:01:36;;;;;;;3.80;3.50;;;;;;;5.68;94.58;101065.22;10521014;28;20040;-78
2021/12/14 08:06:48;;;;;;;3.67;3.38;;;;;;;5.57;95.38;101063.41;10503878;28;20221;-80
2021/12/14 08:11:50;;;;;;;3.65;3.35;;;;;;;5.61;95.90;101053.00;10517491;28;20063;-78
2021/12/14 08:17:04;;;;;;;3.45;3.15;;;;;;;5.65;95.43;101063.44;10519193;28;20055;-79
2021/12/14 08:22:15;;;;;;;3.97;3.67;;;;;;;5.82;94.51;101066.13;10519403;28;20036;-80
2021/12/14 08:27:24;;;;;;;3.80;3.50;;;;;;;5.91;93.45;101067.91;10503013;28;20044;-80
2021/12/14 08:32:32;;;;;;;4.70;4.30;;;;;;;5.91;92.74;101074.00;10520464;28;20059;-79
2021/12/14 08:37:53;;;;;;;4.75;4.35;;;;;;;5.88;92.75;101088.75;10505187;28;20078;-80
2021/12/14 08:43:09;;;;;;;4.55;4.18;;;;;;;5.94;92.53;101079.28;10526893;28;20044;-81
2021/12/14 08:48:19;;;;;;;5.38;4.88;;;;;;;6.01;91.97;101093.19;10546091;28;20021;-79
2021/12/14 08:53:26;;;;;;;6.43;5.93;;;;;;;6.03;91.68;101102.78;10542990;28;20041;-80
2021/12/14 08:58:28;;;;;;;6.75;6.25;;;;;;;5.98;91.93;101104.50;10521528;28;20040;-81
2021/12/14 09:03:34;;;;;;;6.57;6.18;;;;;;;5.97;91.12;101096.66;10519602;28;20111;-81
2021/12/14 09:08:37;;;;;;;7.72;7.22;;;;;;;6.06;91.00;101096.69;10503728;28;20051;-80
2021/12/14 09:13:40;;;;;;;8.10;7.50;;;;;;;6.10;90.19;101097.59;10546404;28;20048;-81
2021/12/14 09:18:49;;;;;;;8.10;7.50;;;;;;;6.11;89.28;101095.00;10528971;28;20054;-80
2021/12/14 09:23:58;;;;;;;8.32;7.72;;;;;;;5.98;90.01;101103.66;10499797;28;20105;-82
2021/12/14 09:29:01;;;;;;;8.73;8.13;;;;;;;6.00;89.81;101094.06;10509481;28;20036;-80
2021/12/14 09:34:05;;;;;;;8.10;7.50;;;;;;;6.06;89.51;101088.84;10536964;28;20048;-80
2021/12/14 09:39:15;;;;;;;7.15;6.75;;;;;;;6.10;88.97;101097.59;10507388;28;20078;-81
2021/12/14 09:44:16;;;;;;;8.13;7.43;;;;;;;6.10;88.97;101094.97;10522204;28;20048;-80
2021/12/14 09:49:18;;;;;;;7.93;7.43;;;;;;;6.00;89.25;101087.09;10520183;28;20190;-80
2021/12/14 09:54:23;;;;;;;8.40;7.80;;;;;;;5.97;89.92;101083.59;10517111;28;20036;-80
2021/12/14 09:59:25;;;;;;;8.70;7.88;;;;;;;6.06;88.69;101081.03;10519521;28;20048;-79
2021/12/14 10:04:38;;;;;;;8.50;7.90;;;;;;;6.00;88.80;101078.41;10522390;28;20123;-80
2021/12/14 10:09:44;;;;;;;8.07;7.45;;;;;;;6.01;89.14;101072.31;10506937;28;20065;-80
2021/12/14 10:14:50;;;;;;;8.45;7.75;;;;;;;6.09;87.79;101065.38;10522179;28;20044;-80
2021/12/14 10:19:54;;;;;;;8.77;8.18;;;;;;;6.04;88.35;101067.97;10523512;28;20096;-81
2021/12/14 10:25:00;;;;;;;9.23;8.23;;;;;;;6.31;85.91;101066.31;10531346;28;20060;-81
2021/12/14 10:30:08;;;;;;;9.50;8.90;;;;;;;6.24;86.20;101054.09;10529033;28;20079;-81
2021/12/14 10:35:16;;;;;;;8.60;8.00;;;;;;;6.34;84.93;101036.75;10528562;28;20049;-81
2021/12/14 10:46:13;;;;;;;9.95;9.30;;;;;;;6.28;84.42;101019.31;10520367;28;20094;-83
2021/12/14 10:51:32;;;;;;;11.75;10.95;;;;;;;6.23;84.96;101028.88;10520436;28;20041;-80
2021/12/14 10:56:40;;;;;;;10.60;9.90;;;;;;;6.36;83.53;101027.16;10503974;28;20502;-80
2021/12/14 11:01:49;;;;;;;11.38;10.57;;;;;;;6.51;82.36;101022.81;10521211;28;20060;-80
2021/12/14 11:06:52;;;;;;;10.25;9.55;;;;;;;6.43;82.46;101029.78;10525267;28;20040;-79
2021/12/14 11:11:58;;;;;;;10.15;9.48;;;;;;;6.36;84.03;101017.56;10522278;28;20086;-82
2021/12/14 11:22:56;;;;;;;9.30;8.68;;;;;;;6.44;82.82;101020.19;10533477;28;20041;-82
2021/12/14 11:28:13;;;;;;;8.90;8.30;;;;;;;6.45;82.88;101011.50;10528913;28;20055;-81
2021/12/14 11:33:52;;;;;;;8.73;8.02;;;;;;;6.55;82.20;101000.16;10534627;28;20037;-81
2021/12/14 11:39:12;;;;;;;7.93;7.43;;;;;;;6.51;82.36;101009.78;10408010;28;20058;-82
2021/12/14 11:44:16;;;;;;;8.02;7.43;;;;;;;6.61;82.15;101000.19;10394286;28;20559;-81
2021/12/14 11:49:19;;;;;;;8.38;7.57;;;;;;;6.52;83.17;100997.56;10395433;28;20065;-82
2021/12/14 11:54:21;;;;;;;8.80;7.57;;;;;;;6.73;81.55;101008.03;10393618;28;20065;-80
2021/12/14 11:59:23;;;;;;;8.60;7.90;;;;;;;6.62;81.80;101004.53;10397209;28;20132;-80
2021/12/14 12:04:34;;;;;;;7.93;7.32;;;;;;;6.79;79.96;100997.56;10391097;28;20042;-80
2021/12/14 12:09:49;;;;;;;8.15;7.65;;;;;;;6.72;81.48;100994.94;10389954;28;20057;-80
2021/12/14 12:15:12;;;;;;;7.78;7.18;;;;;;;6.63;80.68;100998.44;10479069;28;20106;-79
2021/12/14 12:20:27;;;;;;;8.30;7.60;;;;;;;6.68;80.26;100988.84;10517835;28;20045;-80
2021/12/14 12:25:39;;;;;;;8.05;7.47;;;;;;;6.55;81.44;100994.94;10516743;28;20068;-81
2021/12/14 12:30:52;;;;;;;7.40;6.85;;;;;;;6.57;81.29;100988.00;10516736;28;20108;-80
2021/12/14 12:36:03;;;;;;;8.18;7.57;;;;;;;6.58;80.83;100987.13;10501698;28;20490;-81
2021/12/14 12:41:17;;;;;;;7.97;7.38;;;;;;;6.50;81.95;100987.09;10509922;28;20081;-80
2021/12/14 12:46:30;;;;;;;8.55;7.95;;;;;;;6.48;81.76;100986.25;10505327;28;20045;-79
2021/12/14 12:51:51;;;;;;;8.50;7.90;;;;;;;6.59;81.58;101001.91;10527374;28;20104;-80
2021/12/14 12:57:08;;;;;;;8.20;7.60;;;;;;;6.55;82.17;101001.06;10503002;28;20040;-79
2021/12/14 13:02:18;;;;;;;8.77;8.13;;;;;;;6.48;82.38;101009.75;10518322;28;20040;-79
2021/12/14 13:07:29;;;;;;;8.77;8.07;;;;;;;6.33;83.77;101012.38;10522377;28;20079;-79
2021/12/14 13:13:10;;;;;;;8.57;7.97;;;;;;;6.38;83.90;101012.38;10504592;28;20044;-79
2021/12/14 13:18:23;;;;;;;8.82;8.23;;;;;;;6.53;83.11;101002.78;10523210;28;20061;-79
2021/12/14 13:23:43;;;;;;;10.73;9.93;;;;;;;6.48;83.52;101004.53;10523650;28;20132;-79
2021/12/14 13:28:48;;;;;;;8.82;8.23;;;;;;;6.45;84.09;101004.53;10523677;28;20107;-80
2021/12/14 13:33:51;;;;;;;8.60;8.00;;;;;;;6.56;83.13;100992.34;10524035;28;20048;-80
2021/12/14 13:38:53;;;;;;;9.52;8.82;;;;;;;6.50;83.54;100994.94;10525605;28;20045;-80
2021/12/14 13:43:55;;;;;;;9.55;8.85;;;;;;;6.24;85.73;101017.56;10523491;28;20040;-80
2021/12/14 13:48:56;;;;;;;9.68;8.98;;;;;;;6.29;85.88;101026.28;10543968;28;20040;-79
2021/12/14 13:53:58;;;;;;;9.82;9.02;;;;;;;6.53;83.53;101023.69;10528141;28;20055;-80
2021/12/14 13:59:00;;;;;;;9.60;8.88;;;;;;;6.38;84.66;101026.31;10546623;28;20035;-79
2021/12/14 14:04:07;;;;;;;9.63;8.73;;;;;;;6.57;83.91;101030.66;10529753;28;20028;-79
2021/12/14 14:09:23;;;;;;;10.57;9.87;;;;;;;6.38;85.04;101039.34;10529395;28;20028;-80
2021/12/14 14:14:33;;;;;;;10.20;9.47;;;;;;;6.32;85.49;101039.31;10512131;28;20295;-79
2021/12/14 14:19:40;;;;;;;11.00;10.20;;;;;;;6.24;85.94;101055.00;10503262;28;20040;-80
2021/12/14 14:24:45;;;;;;;;;;;;;;;6.28;86.03;101064.56;10503016;28;20032;-82
2021/12/14 14:29:49;;;;;;;10.68;9.90;;;;;;;6.46;85.22;101063.75;10519244;28;19986;-80
2021/12/14 14:34:55;;;;;;;11.35;10.50;;;;;;;6.50;84.86;101073.31;10516763;28;20044;-80
2021/12/14 14:40:03;;;;;;;17.55;16.25;;;;;;;6.21;86.27;101072.41;10522911;28;20098;-81
2021/12/14 14:45:26;;;;;;;12.00;11.10;;;;;;;6.20;86.98;101084.56;10524069;28;20080;-81
2021/12/14 14:50:32;;;;;;;11.57;10.75;;;;;;;6.21;86.98;101085.44;10521281;28;20406;-79
2021/12/14 14:56:02;;;;;;;13.02;12.07;;;;;;;6.26;86.45;101083.72;10519816;28;20045;-81
2021/12/14 15:01:19;;;;;;;12.88;11.80;;;;;;;6.36;86.39;101079.38;10335768;28;20567;-81
2021/12/14 15:06:21;;;;;;;14.10;12.83;;;;;;;6.22;86.80;101071.53;10351260;28;20062;-79
2021/12/14 15:11:36;;;;;;;18.50;12.43;;;;;;;6.21;86.92;101081.09;10350079;28;20054;-79
2021/12/14 15:16:43;;;;;;;15.27;14.15;;;;;;;6.29;86.35;101081.13;10333876;28;20050;-80
2021/12/14 15:21:50;;;;;;;14.20;13.10;;;;;;;6.26;86.81;101075.88;10350607;28;20058;-81
2021/12/14 15:27:10;;;;;;;14.90;13.90;;;;;;;6.20;87.01;101081.09;10336000;28;20054;-80
2021/12/14 15:32:15;;;;;;;15.35;14.15;;;;;;;6.31;86.48;101071.53;10382807;28;20117;-80
2021/12/14 15:37:41;;;;;;;16.50;14.82;;;;;;;6.21;86.83;101067.16;10507472;28;20052;-80
2021/12/14 15:42:55;;;;;;;16.70;15.35;;;;;;;6.18;87.36;101065.41;10535588;28;20087;-80
2021/12/14 15:48:08;;;;;;;16.95;15.65;;;;;;;6.16;87.40;101061.94;10536296;28;20048;-79
2021/12/14 15:53:24;;;;;;;17.52;15.98;;;;;;;6.11;87.43;101060.16;10550868;28;20066;-80
2021/12/14 15:58:28;;;;;;;18.45;17.02;;;;;;;6.14;87.18;101055.81;10547704;28;20066;-81
2021/12/14 16:03:33;;;;;;;19.48;18.02;;;;;;;6.10;88.11;101071.47;10542339;28;20063;-79
2021/12/14 16:08:38;;;;;;;19.95;18.48;;;;;;;6.15;86.94;101070.63;10541442;28;20112;-80
2021/12/14 16:19:00;;;;;;;19.90;18.40;;;;;;;5.86;88.01;101087.91;10525309;28;20044;-82
2021/12/14 16:24:03;;;;;;;21.33;19.73;;;;;;;5.88;88.32;101091.38;10504555;28;20040;-80
2021/12/14 16:29:05;;;;;;;21.33;19.30;;;;;;;6.04;87.30;101107.13;10546180;28;20058;-82
2021/12/14 16:34:11;;;;;;;23.10;21.25;;;;;;;5.95;87.84;101103.63;10547876;28;20051;-79
2021/12/14 16:39:21;;;;;;;21.77;19.87;;;;;;;5.98;87.79;101108.88;10513361;28;20092;-81
2021/12/14 16:44:33;;;;;;;23.10;20.80;;;;;;;6.19;86.95;101110.66;10521449;28;20060;-81
2021/12/14 16:49:49;;;;;;;21.60;19.73;;;;;;;6.02;87.98;101119.31;10522053;28;20079;-81
2021/12/14 16:54:53;;;;;;;22.30;20.42;;;;;;;6.09;87.54;101121.94;10521724;28;20414;-81
2021/12/14 16:59:58;;;;;;;22.15;20.42;;;;;;;5.95;88.74;101129.72;10521620;28;20514;-81
2021/12/14 17:05:05;;;;;;;24.73;22.50;;;;;;;6.09;87.51;101127.16;10524232;28;20540;-80
2021/12/14 17:10:18;;;;;;;22.27;20.38;;;;;;;6.05;88.31;101123.66;10507402;28;20147;-81
2021/12/14 17:15:26;;;;;;;26.13;23.60;;;;;;;5.99;88.29;101139.31;10508737;28;20074;-81
2021/12/14 17:26:36;;;;;;;22.98;21.17;;;;;;;6.02;88.57;101142.81;10524260;28;20528;-80
2021/12/14 17:31:45;;;;;;;24.75;22.75;;;;;;;6.02;88.58;101141.91;10524598;28;20045;-80
2021/12/14 17:36:53;;;;;;;24.67;22.55;;;;;;;6.05;88.42;101150.63;10525336;28;20076;-79
2021/12/14 17:41:56;;;;;;;;;;;;;;;6.16;87.90;101139.38;10487425;28;20071;-79
2021/12/14 17:47:15;;;;;;;23.73;21.42;;;;;;;6.13;87.64;101160.25;10500169;28;19927;-80
2021/12/14 17:52:23;;;;;;;24.42;21.60;;;;;;;6.12;88.13;101164.59;10520178;28;20037;-81
2021/12/14 17:57:28;;;;;;;23.80;21.75;;;;;;;6.16;87.77;101153.31;10498923;28;20117;-81
2021/12/14 18:02:45;;;;;;;25.90;22.30;;;;;;;6.03;88.69;101155.00;10500918;28;20052;-81
2021/12/14 18:08:03;;;;;;;23.80;21.38;;;;;;;6.22;87.55;101145.50;10518413;28;20053;-80
2021/12/14 18:13:17;;;;;;;23.83;21.52;;;;;;;6.06;88.23;101152.41;10519752;28;20036;-80
2021/12/14 18:23:39;;;;;;;23.42;21.17;;;;;;;5.87;89.57;101162.69;10522327;28;20490;-80
2021/12/14 18:28:50;;;;;;;24.38;21.88;;;;;;;6.10;88.27;101162.84;10522845;28;20049;-80
2021/12/14 18:34:02;;;;;;;24.15;22.00;;;;;;;5.92;89.40;101176.66;10504327;28;20041;-79
2021/12/14 18:39:15;;;;;;;26.50;23.30;;;;;;;5.71;91.24;101175.66;10515241;28;20127;-80
2021/12/14 18:44:20;;;;;;;25.45;22.77;;;;;;;5.61;92.40;101178.19;10540955;28;20029;-82
2021/12/14 18:49:43;;;;;;;29.80;24.55;;;;;;;5.53;92.72;101184.25;10533452;28;20048;-81
2021/12/14 18:55:02;;;;;;;26.98;24.10;;;;;;;5.53;92.76;101189.47;10521259;28;20064;-80
2021/12/14 19:00:25;;;;;;;27.85;24.17;;;;;;;5.43;93.78;101198.06;10503833;28;20482;-80
2021/12/14 19:05:32;;;;;;;26.98;24.27;;;;;;;5.46;93.56;101202.44;10521817;28;20127;-80
2021/12/14 19:10:42;;;;;;;34.90;26.23;;;;;;;5.41;94.83;101206.75;10528124;28;20127;-81
2021/12/14 19:15:46;;;;;;;32.72;25.60;;;;;;;5.40;95.40;101199.75;10539642;28;20044;-81
2021/12/14 19:20:51;;;;;;;27.38;24.48;;;;;;;5.50;95.37;101205.06;10548804;28;20040;-81
2021/12/14 19:25:53;;;;;;;28.80;24.42;;;;;;;5.77;93.86;101216.56;10547571;28;20071;-79
2021/12/14 19:31:01;;;;;;;35.23;25.30;;;;;;;5.96;94.70;101204.53;10545475;28;20051;-79
2021/12/14 19:36:04;;;;;;;34.67;26.05;;;;;;;5.92;95.49;101215.81;10527908;28;20108;-80
2021/12/14 19:41:10;;;;;;;42.17;28.30;;;;;;;5.81;96.38;101215.72;10527815;28;20040;-80
2021/12/14 19:46:22;;;;;;;42.35;28.27;;;;;;;5.69;98.00;101208.69;10526269;28;20048;-80
2021/12/14 19:51:30;;;;;;;48.22;29.73;;;;;;;5.82;97.48;101222.69;10524495;28;20074;-82
2021/12/14 19:56:33;;;;;;;47.05;29.05;;;;;;;5.67;98.54;101227.81;10537943;28;20159;-80
2021/12/14 20:01:42;;;;;;;49.92;30.15;;;;;;;5.85;97.50;101229.66;10542815;28;20051;-81
2021/12/14 20:06:48;;;;;;;42.55;27.60;;;;;;;5.82;97.74;101225.28;10539097;28;20413;-82
2021/12/14 20:11:54;;;;;;;35.25;27.35;;;;;;;5.81;98.16;101220.94;10519192;28;20051;-82
2021/12/14 20:16:58;;;;;;;38.65;28.10;;;;;;;5.92;97.26;101234.94;10524187;28;20066;-80
2021/12/14 20:22:04;;;;;;;44.67;28.10;;;;;;;5.86;97.85;101234.88;10539400;28;20052;-81
2021/12/14 20:27:16;;;;;;;47.58;28.92;;;;;;;5.71;98.68;101246.09;10547239;28;20048;-82
2021/12/14 20:32:23;;;;;;;32.30;25.35;;;;;;;5.96;97.27;101239.34;10529752;28;20043;-80
2021/12/14 20:37:31;;;;;;;40.80;26.00;;;;;;;6.09;96.61;101236.81;10546984;28;20044;-80
2021/12/14 20:47:50;;;;;;;40.63;26.37;;;;;;;6.00;96.96;101256.75;10538636;28;20045;-80
2021/12/14 20:52:56;;;;;;;43.67;28.00;;;;;;;5.88;97.39;101263.59;10543610;28;20028;-80
2021/12/14 20:58:12;;;;;;;46.05;28.02;;;;;;;5.80;98.10;101260.94;10532045;28;20142;-81
2021/12/14 21:03:24;;;;;;;43.90;28.02;;;;;;;6.00;97.05;101259.38;10530366;28;20064;-80
2021/12/14 21:08:28;;;;;;;46.70;28.50;;;;;;;5.95;97.16;101261.09;10542500;28;20395;-80
2021/12/14 21:13:40;;;;;;;44.22;29.20;;;;;;;5.94;97.56;101264.56;10526467;28;20041;-80
2021/12/14 21:18:42;;;;;;;51.17;29.35;;;;;;;5.81;99.04;101267.91;10544676;28;20051;-81
2021/12/14 21:23:44;;;;;;;46.55;27.70;;;;;;;5.98;98.65;101275.91;10544987;28;20382;-80
2021/12/14 21:28:45;;;;;;;53.78;31.02;;;;;;;5.62;100.00;101284.25;10523980;28;20108;-80
2021/12/14 21:33:50;;;;;;;57.15;30.23;;;;;;;5.52;100.00;101285.91;10542322;28;20045;-82
2021/12/14 21:38:59;;;;;;;52.22;28.67;;;;;;;5.57;100.00;101271.19;10541750;28;20043;-81
2021/12/14 21:49:20;;;;;;;63.25;31.25;;;;;;;5.49;100.00;101278.06;10546670;28;20048;-81
2021/12/14 21:54:50;;;;;;;64.90;32.05;;;;;;;5.38;100.00;101277.09;10531197;28;20052;-79
2021/12/14 21:59:56;;;;;;;54.72;28.80;;;;;;;5.48;100.00;101284.16;10517675;28;20100;-81
2021/12/14 22:04:59;;;;;;;44.90;28.23;;;;;;;5.72;100.00;101286.09;10540367;28;20048;-81
2021/12/14 22:10:02;;;;;;;41.60;26.90;;;;;;;5.71;100.00;101280.03;10535215;28;20048;-81
2021/12/14 22:15:07;;;;;;;51.03;27.35;;;;;;;5.70;100.00;101285.19;10536255;28;20128;-80
2021/12/14 22:20:13;;;;;;;53.95;27.85;;;;;;;5.72;100.00;101284.38;10534079;28;20056;-80
2021/12/14 22:25:19;;;;;;;38.63;26.17;;;;;;;5.80;100.00;101284.44;10530743;28;20063;-81
2021/12/14 22:30:22;;;;;;;40.67;26.45;;;;;;;5.95;100.00;101289.78;10510517;28;20079;-80
2021/12/14 22:35:24;;;;;;;42.63;26.42;;;;;;;5.73;100.00;101282.63;10507929;28;20108;-80
2021/12/14 22:45:55;;;;;;;47.67;28.75;;;;;;;5.69;100.00;101281.72;10506803;28;20532;-80
2021/12/14 22:50:57;;;;;;;52.85;27.63;;;;;;;5.79;100.00;101283.53;10513989;28;20066;-80
2021/12/14 22:55:58;;;;;;;39.53;26.15;;;;;;;5.72;100.00;101276.53;10526469;28;20383;-80
2021/12/14 23:01:07;;;;;;;45.08;26.75;;;;;;;5.87;99.75;101280.13;10512139;28;20485;-80
2021/12/14 23:06:09;;;;;;;50.03;26.27;;;;;;;5.89;100.00;101281.00;10528027;28;20063;-80
2021/12/14 23:11:11;;;;;;;41.38;24.95;;;;;;;5.94;99.33;101274.13;10534374;28;20494;-80
2021/12/14 23:16:14;;;;;;;41.78;26.05;;;;;;;5.70;99.43;101278.25;10512357;28;20100;-79
2021/12/14 23:21:18;;;;;;;35.90;24.38;;;;;;;5.62;100.00;101289.47;10544276;28;20075;-81
2021/12/14 23:26:21;;;;;;;46.08;26.90;;;;;;;5.69;100.00;101283.47;10537481;28;20104;-81
2021/12/14 23:31:24;;;;;;;37.65;24.00;;;;;;;5.73;100.00;101280.88;10524909;28;20050;-81
2021/12/14 23:36:26;;;;;;;43.25;25.63;;;;;;;5.70;100.00;101277.38;10540241;28;20463;-80
2021/12/14 23:41:36;;;;;;;43.28;25.55;;;;;;;5.65;100.00;101274.72;10524453;28;20056;-80
2021/12/14 23:51:41;;;;;;;49.80;27.67;;;;;;;5.60;100.00;101275.56;10538448;28;20055;-80
2021/12/14 23:56:44;;;;;;;53.65;27.10;;;;;;;5.69;100.00;101268.69;10509171;28;20048;-81
